Time;durP1;ratioP1;P1;durP2;ratioP2;P2;SDS_P1;SDS_P2;PMS_P1;PMS_P2;Temp;Humidity;BMP_temperature;BMP_pressure;BME280_temperature;BME280_humidity;BME280_pressure;Samples;Min_cycle;Max_cycle;Signal;HPM_P1;HPM_P2
2023/09/30 00:12:32;;;;;;;14.13;11.10;;;22.00;99.90;;;;;;4569949;19;20416;-69
2023/09/30 00:14:08;;;;;;;15.07;11.60;;;22.00;99.90;;;;;;4591313;19;20364;-69
2023/09/30 00:15:42;;;;;;;12.57;10.90;;;22.00;99.90;;;;;;4591175;19;20007;-69
2023/09/30 00:17:16;;;;;;;12.40;10.00;;;22.00;99.90;;;;;;4591242;19;19998;-69
2023/09/30 00:18:51;;;;;;;13.18;10.77;;;21.90;99.90;;;;;;4590363;19;20014;-69
2023/09/30 00:20:25;;;;;;;13.63;11.43;;;22.00;99.90;;;;;;4590926;19;20005;-69
2023/09/30 00:22:00;;;;;;;13.48;10.93;;;21.90;99.90;;;;;;4589579;19;19998;-69
2023/09/30 00:23:35;;;;;;;13.88;11.48;;;22.00;99.90;;;;;;4590430;19;20007;-69
2023/09/30 00:25:09;;;;;;;12.18;10.90;;;22.00;99.90;;;;;;4591351;19;20424;-69
2023/09/30 00:26:43;;;;;;;12.80;11.10;;;22.00;99.90;;;;;;4591164;19;20009;-69
2023/09/30 00:28:19;;;;;;;12.98;10.75;;;22.00;99.90;;;;;;4591285;19;20532;-69
2023/09/30 00:29:53;;;;;;;14.52;11.27;;;21.90;99.90;;;;;;4591067;19;20010;-69
2023/09/30 00:31:27;;;;;;;14.45;11.40;;;21.90;99.90;;;;;;4591260;19;20002;-69
2023/09/30 00:33:02;;;;;;;13.00;10.05;;;21.90;99.90;;;;;;4590435;19;20070;-69
2023/09/30 00:34:36;;;;;;;12.27;10.68;;;21.90;99.90;;;;;;4590987;19;20314;-69
2023/09/30 00:36:13;;;;;;;13.82;11.15;;;21.90;99.90;;;;;;4590966;19;20066;-69
2023/09/30 00:37:50;;;;;;;13.90;11.13;;;21.90;99.90;;;;;;4591275;19;20495;-69
2023/09/30 00:39:29;;;;;;;13.55;11.35;;;21.90;99.90;;;;;;4591518;19;20010;-69
2023/09/30 00:41:03;;;;;;;12.73;9.95;;;21.90;99.90;;;;;;4590956;19;20007;-69
2023/09/30 00:42:41;;;;;;;13.52;10.15;;;21.90;99.90;;;;;;4590007;19;20010;-69
2023/09/30 00:44:15;;;;;;;11.40;10.07;;;21.90;99.90;;;;;;4589823;19;20050;-69
2023/09/30 00:46:07;;;;;;;12.68;10.32;;;21.90;99.90;;;;;;4593415;19;20021;-69
2023/09/30 00:47:43;;;;;;;13.50;10.73;;;21.90;99.90;;;;;;4595508;19;20006;-69
2023/09/30 00:49:18;;;;;;;11.88;9.90;;;21.90;99.90;;;;;;4595370;19;20003;-69
2023/09/30 00:50:52;;;;;;;11.55;10.02;;;21.90;99.90;;;;;;4594027;19;20003;-69
2023/09/30 00:52:28;;;;;;;12.77;10.70;;;21.90;99.90;;;;;;4594333;19;20026;-69
2023/09/30 00:54:02;;;;;;;12.48;11.18;;;21.90;99.90;;;;;;4594237;19;19998;-69
2023/09/30 00:55:35;;;;;;;13.15;10.35;;;21.90;99.90;;;;;;4595044;19;20006;-69
2023/09/30 00:57:11;;;;;;;15.15;11.70;;;21.90;99.90;;;;;;4595948;19;20018;-69
2023/09/30 00:58:47;;;;;;;13.05;11.52;;;21.90;99.90;;;;;;4595499;19;20007;-69
2023/09/30 01:00:25;;;;;;;16.35;11.02;;;21.90;99.90;;;;;;4594139;19;20003;-69
2023/09/30 01:02:00;;;;;;;14.98;11.63;;;21.90;99.90;;;;;;4593712;19;20013;-69
2023/09/30 01:03:34;;;;;;;15.85;12.15;;;21.90;99.90;;;;;;4592401;19;20032;-69
2023/09/30 01:05:09;;;;;;;17.92;12.68;;;21.90;99.90;;;;;;4595036;19;20342;-69
2023/09/30 01:06:45;;;;;;;15.93;12.57;;;21.90;99.90;;;;;;4595092;19;20006;-69
2023/09/30 01:08:19;;;;;;;15.07;12.30;;;21.90;99.90;;;;;;4594965;19;20002;-69
2023/09/30 01:09:55;;;;;;;16.88;13.98;;;21.90;99.90;;;;;;4595432;19;20095;-69
2023/09/30 01:11:30;;;;;;;16.98;13.70;;;21.90;99.90;;;;;;4593753;19;20017;-69
2023/09/30 01:13:04;;;;;;;15.80;13.02;;;21.90;99.90;;;;;;4592743;19;20014;-69
2023/09/30 01:14:42;;;;;;;15.20;12.23;;;21.90;99.90;;;;;;4594964;19;19998;-69
2023/09/30 01:16:17;;;;;;;14.23;12.02;;;21.90;99.90;;;;;;4595257;19;20023;-69
2023/09/30 01:17:52;;;;;;;13.88;12.25;;;21.90;99.90;;;;;;4595164;19;20007;-69
2023/09/30 01:19:29;;;;;;;14.60;12.27;;;21.90;99.90;;;;;;4594799;19;20312;-69
2023/09/30 01:21:05;;;;;;;15.07;11.52;;;21.90;99.90;;;;;;4595124;19;20033;-69
2023/09/30 01:22:39;;;;;;;14.25;11.60;;;21.80;99.90;;;;;;4593590;19;19999;-69
2023/09/30 01:24:13;;;;;;;12.90;11.45;;;21.90;99.90;;;;;;4594743;19;20002;-69
2023/09/30 01:25:53;;;;;;;14.63;11.55;;;21.90;99.90;;;;;;4594719;19;20007;-69
2023/09/30 01:27:28;;;;;;;14.93;11.00;;;21.90;99.90;;;;;;4594669;19;20006;-69
2023/09/30 01:29:02;;;;;;;10.93;9.75;;;21.90;99.90;;;;;;4594547;19;19999;-69
2023/09/30 01:30:37;;;;;;;14.10;11.05;;;21.90;99.90;;;;;;4594674;19;20009;-69
2023/09/30 01:32:11;;;;;;;12.23;10.63;;;21.90;99.90;;;;;;4593905;19;20458;-69
2023/09/30 01:33:45;;;;;;;11.35;10.07;;;21.90;99.90;;;;;;4594584;19;19999;-69
2023/09/30 01:35:21;;;;;;;11.98;9.82;;;21.90;99.90;;;;;;4595136;19;20025;-69
2023/09/30 01:36:55;;;;;;;11.15;10.05;;;21.80;99.90;;;;;;4594479;19;19999;-69
2023/09/30 01:38:30;;;;;;;15.07;11.18;;;21.80;99.90;;;;;;4594357;19;20044;-69
2023/09/30 01:40:08;;;;;;;11.68;10.45;;;21.80;99.90;;;;;;4594888;19;20263;-69
2023/09/30 01:41:43;;;;;;;14.10;11.38;;;21.80;99.90;;;;;;4594713;19;20010;-69
2023/09/30 01:43:17;;;;;;;11.52;10.32;;;21.90;99.90;;;;;;4593723;19;20010;-69
2023/09/30 01:44:52;;;;;;;11.27;10.05;;;21.90;99.90;;;;;;4594462;19;19999;-69
2023/09/30 01:46:26;;;;;;;13.98;9.93;;;21.90;99.90;;;;;;4594254;19;20003;-69
2023/09/30 01:48:00;;;;;;;13.80;10.50;;;21.80;99.90;;;;;;4592877;19;20413;-69
2023/09/30 01:49:36;;;;;;;14.13;10.00;;;21.80;99.90;;;;;;4593914;19;20002;-69
2023/09/30 01:51:09;;;;;;;11.68;10.45;;;21.80;99.90;;;;;;4594321;19;20426;-69
2023/09/30 01:52:44;;;;;;;11.88;10.15;;;21.90;99.90;;;;;;4593257;19;20002;-69
2023/09/30 01:54:20;;;;;;;14.27;11.27;;;21.80;99.90;;;;;;4594508;19;19998;-69
2023/09/30 01:55:55;;;;;;;13.23;9.50;;;21.90;99.90;;;;;;4593842;19;20009;-69
2023/09/30 01:57:29;;;;;;;12.70;9.70;;;21.90;99.90;;;;;;4594295;19;19999;-69
2023/09/30 01:59:04;;;;;;;12.52;10.02;;;21.80;99.90;;;;;;4594265;19;20003;-69
2023/09/30 02:00:38;;;;;;;10.90;9.73;;;21.90;99.90;;;;;;4594237;19;20429;-69
2023/09/30 02:02:12;;;;;;;11.88;10.05;;;21.90;99.90;;;;;;4593347;19;20006;-69
2023/09/30 02:03:47;;;;;;;11.32;9.45;;;21.90;99.90;;;;;;4592715;19;20007;-69
2023/09/30 02:05:26;;;;;;;16.40;9.82;;;21.80;99.90;;;;;;4593940;19;20010;-69
2023/09/30 02:07:00;;;;;;;12.45;9.93;;;21.90;99.90;;;;;;4593805;19;20002;-69
2023/09/30 02:08:36;;;;;;;11.60;10.23;;;21.90;99.90;;;;;;4594195;19;20321;-69
2023/09/30 02:10:10;;;;;;;12.07;8.98;;;21.90;99.90;;;;;;4593864;19;20007;-69
2023/09/30 02:11:45;;;;;;;11.90;9.98;;;21.80;99.90;;;;;;4592729;19;20043;-69
2023/09/30 02:13:21;;;;;;;13.38;9.82;;;21.80;99.90;;;;;;4594215;19;19998;-69
2023/09/30 02:14:56;;;;;;;11.93;10.40;;;21.80;99.90;;;;;;4594225;19;20005;-69
2023/09/30 02:16:31;;;;;;;14.38;10.55;;;21.80;99.90;;;;;;4593709;19;20014;-69
2023/09/30 02:18:06;;;;;;;11.65;9.60;;;21.80;99.90;;;;;;4593897;19;20006;-69
2023/09/30 02:19:41;;;;;;;12.40;10.43;;;21.80;99.90;;;;;;4593774;19;19998;-69
2023/09/30 02:21:15;;;;;;;10.88;9.68;;;21.80;99.90;;;;;;4593953;19;20002;-69
2023/09/30 02:22:50;;;;;;;12.15;9.95;;;21.80;99.90;;;;;;4592303;19;20006;-69
2023/09/30 02:24:24;;;;;;;13.18;9.75;;;21.80;99.90;;;;;;4593664;19;20018;-69
2023/09/30 02:25:58;;;;;;;12.70;10.13;;;21.80;99.90;;;;;;4593982;19;20002;-69
2023/09/30 02:27:34;;;;;;;11.52;9.85;;;21.80;99.90;;;;;;4594037;19;20450;-69
2023/09/30 02:29:10;;;;;;;11.60;10.25;;;21.80;99.90;;;;;;4593652;19;20353;-69
2023/09/30 02:30:44;;;;;;;10.75;9.65;;;21.80;99.90;;;;;;4593869;19;20022;-69
2023/09/30 02:32:19;;;;;;;16.40;11.18;;;21.80;99.90;;;;;;4592873;19;19999;-69
2023/09/30 02:33:53;;;;;;;11.85;9.82;;;21.80;99.90;;;;;;4593413;19;20082;-69
2023/09/30 02:35:27;;;;;;;12.55;9.85;;;21.80;99.90;;;;;;4593419;19;20010;-69
2023/09/30 02:37:02;;;;;;;11.45;9.85;;;21.80;99.90;;;;;;4593720;19;20074;-69
2023/09/30 02:38:40;;;;;;;11.57;10.20;;;21.80;99.90;;;;;;4593599;19;20035;-69
2023/09/30 02:40:14;;;;;;;11.02;9.73;;;21.80;99.90;;;;;;4592368;19;20014;-69
2023/09/30 02:41:50;;;;;;;12.25;10.38;;;21.80;99.90;;;;;;4592968;19;20069;-69
2023/09/30 02:43:24;;;;;;;11.95;10.00;;;21.80;99.90;;;;;;4592633;19;20040;-69
2023/09/30 02:45:04;;;;;;;12.63;10.45;;;21.80;99.90;;;;;;4591978;19;20003;-69
2023/09/30 02:46:40;;;;;;;14.30;11.25;;;21.80;99.90;;;;;;4593161;19;20006;-69
2023/09/30 02:48:15;;;;;;;12.02;9.73;;;21.80;99.90;;;;;;4593517;19;20314;-69
2023/09/30 02:49:49;;;;;;;12.32;10.70;;;21.80;99.90;;;;;;4593512;19;20019;-69
2023/09/30 02:51:25;;;;;;;10.63;9.52;;;21.80;99.90;;;;;;4593295;19;20002;-69
2023/09/30 02:52:59;;;;;;;11.90;9.77;;;21.80;99.90;;;;;;4590717;19;20010;-69
2023/09/30 02:54:33;;;;;;;10.70;9.60;;;21.80;99.90;;;;;;4591771;19;20003;-69
2023/09/30 02:56:08;;;;;;;11.30;10.00;;;21.80;99.90;;;;;;4592853;19;20006;-69
2023/09/30 02:57:42;;;;;;;10.88;9.38;;;21.80;99.90;;;;;;4593029;19;20003;-69
2023/09/30 02:59:16;;;;;;;11.75;10.55;;;21.80;99.90;;;;;;4593308;19;20003;-69
2023/09/30 03:00:51;;;;;;;10.73;9.63;;;21.80;99.90;;;;;;4591502;19;20441;-69
2023/09/30 03:02:28;;;;;;;11.25;10.05;;;21.80;99.90;;;;;;4591842;19;20010;-69
2023/09/30 03:04:02;;;;;;;11.50;9.50;;;21.80;99.90;;;;;;4591916;19;20328;-69
2023/09/30 03:05:38;;;;;;;10.43;9.32;;;21.80;99.90;;;;;;4592833;19;20029;-69
2023/09/30 03:07:12;;;;;;;12.52;10.02;;;21.80;99.90;;;;;;4592758;19;20440;-69
2023/09/30 03:08:46;;;;;;;10.60;9.52;;;21.70;99.90;;;;;;4591403;19;20005;-69
2023/09/30 03:10:23;;;;;;;10.82;9.68;;;21.70;99.90;;;;;;4592815;19;20013;-69
2023/09/30 03:11:59;;;;;;;11.60;9.98;;;21.80;99.90;;;;;;4592199;19;20002;-69
2023/09/30 03:13:34;;;;;;;12.60;10.05;;;21.70;99.90;;;;;;4592687;19;20007;-69
2023/09/30 03:15:09;;;;;;;12.05;9.80;;;21.70;99.90;;;;;;4592937;19;20007;-69
2023/09/30 03:16:44;;;;;;;11.20;10.07;;;21.70;99.90;;;;;;4592586;19;20003;-69
2023/09/30 03:18:22;;;;;;;11.10;9.90;;;21.70;99.90;;;;;;4593032;19;20021;-69
2023/09/30 03:19:57;;;;;;;12.20;9.73;;;21.70;99.90;;;;;;4591098;19;20010;-69
2023/09/30 03:21:31;;;;;;;11.32;9.80;;;21.70;99.90;;;;;;4592324;19;19998;-69
2023/09/30 03:23:04;;;;;;;11.00;9.90;;;21.70;99.90;;;;;;4591517;19;20015;-69
2023/09/30 03:24:41;;;;;;;12.63;10.07;;;21.70;99.90;;;;;;4592699;19;20036;-69
2023/09/30 03:26:15;;;;;;;11.52;10.32;;;21.70;99.90;;;;;;4591217;19;20031;-69
2023/09/30 03:27:49;;;;;;;11.70;9.50;;;21.70;99.90;;;;;;4590997;19;19998;-69
2023/09/30 03:29:25;;;;;;;11.10;9.98;;;21.70;99.90;;;;;;4591929;19;20003;-69
2023/09/30 03:30:58;;;;;;;12.15;9.45;;;21.70;99.90;;;;;;4590930;19;19999;-69
2023/09/30 03:32:33;;;;;;;11.15;10.05;;;21.70;99.90;;;;;;4591137;19;20002;-69
2023/09/30 03:34:08;;;;;;;11.35;9.98;;;21.70;99.90;;;;;;4592651;19;20009;-69
2023/09/30 03:35:42;;;;;;;11.45;9.90;;;21.70;99.90;;;;;;4591055;19;20018;-69
2023/09/30 03:37:16;;;;;;;11.43;9.98;;;21.70;99.90;;;;;;4591828;19;20002;-69
2023/09/30 03:38:56;;;;;;;14.23;11.70;;;21.70;99.90;;;;;;4592479;19;19995;-69
2023/09/30 03:40:33;;;;;;;16.55;12.30;;;21.70;99.90;;;;;;4592254;19;20038;-69
2023/09/30 03:42:11;;;;;;;14.50;12.48;;;21.70;99.90;;;;;;4591999;19;20010;-69
2023/09/30 03:43:47;;;;;;;14.35;11.98;;;21.70;99.90;;;;;;4591211;19;20009;-69
2023/09/30 03:45:21;;;;;;;16.73;13.35;;;21.60;99.90;;;;;;4592173;19;20025;-69
2023/09/30 03:46:55;;;;;;;13.38;11.52;;;21.70;99.90;;;;;;4592005;19;20002;-69
2023/09/30 03:48:30;;;;;;;11.65;10.43;;;21.70;99.90;;;;;;4591046;19;20086;-69
2023/09/30 03:50:05;;;;;;;12.63;10.80;;;21.70;99.90;;;;;;4591793;19;20045;-69
2023/09/30 03:51:39;;;;;;;12.25;10.73;;;21.70;99.90;;;;;;4590655;19;20026;-69
2023/09/30 03:53:15;;;;;;;10.75;9.65;;;21.70;99.90;;;;;;4591700;19;20099;-69
2023/09/30 03:54:48;;;;;;;10.82;9.73;;;21.70;99.90;;;;;;4591733;19;20030;-69
2023/09/30 03:56:23;;;;;;;11.25;9.82;;;21.70;99.90;;;;;;4591762;19;20006;-69
2023/09/30 03:57:58;;;;;;;11.05;9.98;;;21.70;99.90;;;;;;4592469;19;20025;-69
2023/09/30 03:59:33;;;;;;;11.35;9.60;;;21.70;99.90;;;;;;4590591;19;20026;-69
2023/09/30 04:01:16;;;;;;;10.38;9.32;;;21.70;99.90;;;;;;4591538;19;20044;-69
2023/09/30 04:02:57;;;;;;;12.65;9.93;;;21.70;99.90;;;;;;4589793;19;20453;-69
2023/09/30 04:04:34;;;;;;;10.82;9.63;;;21.70;99.90;;;;;;4590465;19;20494;-69
2023/09/30 04:06:08;;;;;;;11.75;10.45;;;21.60;99.90;;;;;;4591495;19;20314;-69
2023/09/30 04:07:43;;;;;;;11.90;9.85;;;21.70;99.90;;;;;;4592247;19;20002;-69
2023/09/30 04:09:17;;;;;;;11.23;10.10;;;21.70;99.90;;;;;;4591665;19;20006;-69
2023/09/30 04:10:54;;;;;;;11.57;10.02;;;21.70;99.90;;;;;;4591837;19;20026;-69
2023/09/30 04:12:30;;;;;;;10.88;9.75;;;21.70;99.90;;;;;;4591028;19;20087;-69
2023/09/30 04:14:09;;;;;;;11.32;10.13;;;21.70;99.90;;;;;;4591661;19;20005;-69
2023/09/30 04:15:44;;;;;;;11.80;9.70;;;21.70;99.90;;;;;;4590309;19;20051;-69
2023/09/30 04:17:19;;;;;;;13.68;11.45;;;21.60;99.90;;;;;;4591303;19;20013;-69
2023/09/30 04:18:53;;;;;;;14.15;12.07;;;21.70;99.90;;;;;;4591369;19;20003;-69
2023/09/30 04:20:29;;;;;;;14.45;11.68;;;21.70;99.90;;;;;;4593299;19;20026;-68
2023/09/30 04:22:05;;;;;;;14.90;11.65;;;21.70;99.90;;;;;;4595563;19;20018;-69
2023/09/30 04:23:39;;;;;;;12.35;10.85;;;21.70;99.90;;;;;;4595149;19;20298;-69
2023/09/30 04:25:16;;;;;;;12.77;11.38;;;21.70;99.90;;;;;;4596435;19;19998;-69
2023/09/30 04:26:54;;;;;;;13.43;10.93;;;21.70;99.90;;;;;;4596369;19;20014;-69
2023/09/30 04:28:28;;;;;;;16.80;11.43;;;21.70;99.90;;;;;;4594801;19;20014;-69
2023/09/30 04:30:08;;;;;;;14.25;11.52;;;21.70;99.90;;;;;;4596270;19;20461;-69
2023/09/30 04:31:43;;;;;;;12.27;10.98;;;21.70;99.90;;;;;;4596496;19;20010;-69
2023/09/30 04:33:17;;;;;;;14.85;11.55;;;21.70;99.90;;;;;;4596497;19;20006;-69
2023/09/30 04:34:51;;;;;;;11.93;10.00;;;21.70;99.90;;;;;;4595085;19;20010;-69
2023/09/30 04:36:26;;;;;;;11.18;9.93;;;21.70;99.90;;;;;;4596446;19;20002;-69
2023/09/30 04:38:04;;;;;;;12.32;9.95;;;21.80;99.90;;;;;;4596437;19;20001;-70
2023/09/30 04:39:38;;;;;;;10.30;8.55;;;21.80;99.90;;;;;;4596391;19;20325;-69
2023/09/30 04:41:13;;;;;;;10.88;9.75;;;21.90;99.90;;;;;;4596415;19;20006;-69
2023/09/30 04:42:47;;;;;;;12.93;10.55;;;21.90;99.90;;;;;;4594807;19;20003;-72
2023/09/30 04:44:22;;;;;;;12.45;10.13;;;21.90;99.90;;;;;;4596309;19;20006;-74
2023/09/30 04:45:58;;;;;;;10.45;9.35;;;22.00;99.90;;;;;;4596257;19;20006;-71
2023/09/30 04:47:32;;;;;;;10.07;9.07;;;22.00;99.90;;;;;;4596206;19;20006;-69
2023/09/30 04:49:06;;;;;;;10.52;8.48;;;22.10;99.90;;;;;;4596152;19;20429;-69
2023/09/30 04:50:42;;;;;;;9.95;8.60;;;22.10;99.90;;;;;;4596467;19;20010;-69
2023/09/30 04:52:16;;;;;;;10.82;9.73;;;22.20;99.90;;;;;;4595325;19;20030;-69
2023/09/30 04:53:50;;;;;;;10.63;9.20;;;22.20;99.90;;;;;;4596075;19;20012;-69
2023/09/30 04:55:26;;;;;;;10.10;8.48;;;22.30;99.90;;;;;;4595978;19;20058;-69
2023/09/30 04:57:00;;;;;;;10.23;8.23;;;22.40;99.90;;;;;;4596294;19;20312;-69
2023/09/30 04:58:34;;;;;;;10.15;8.63;;;22.40;99.90;;;;;;4596008;19;20349;-69
2023/09/30 05:00:11;;;;;;;12.38;8.35;;;22.40;99.90;;;;;;4596009;19;20077;-69
2023/09/30 05:01:44;;;;;;;10.32;8.50;;;22.40;99.90;;;;;;4595720;19;20306;-68
2023/09/30 05:03:19;;;;;;;11.10;8.35;;;22.40;99.90;;;;;;4593771;19;19999;-69
2023/09/30 05:04:54;;;;;;;8.90;8.00;;;22.50;99.90;;;;;;4595631;19;20002;-69
2023/09/30 05:06:29;;;;;;;9.15;8.18;;;22.50;99.90;;;;;;4594493;19;20013;-69
2023/09/30 05:08:04;;;;;;;9.32;8.40;;;22.50;99.90;;;;;;4595449;19;20002;-69
2023/09/30 05:09:39;;;;;;;7.80;6.88;;;22.50;99.90;;;;;;4595832;19;20066;-69
2023/09/30 05:11:13;;;;;;;8.52;7.13;;;22.60;99.90;;;;;;4595991;19;20026;-69
2023/09/30 05:12:47;;;;;;;8.32;6.85;;;22.80;99.90;;;;;;4594167;19;20015;-70
2023/09/30 05:14:22;;;;;;;8.43;7.57;;;22.80;99.90;;;;;;4594285;19;20009;-70
2023/09/30 05:15:57;;;;;;;8.15;7.07;;;22.80;99.90;;;;;;4595530;19;20464;-70
2023/09/30 05:17:31;;;;;;;7.75;6.95;;;22.80;99.90;;;;;;4595784;19;20074;-70
2023/09/30 05:19:08;;;;;;;7.95;7.15;;;22.70;99.90;;;;;;4595664;19;20082;-74
2023/09/30 05:20:42;;;;;;;7.45;6.22;;;22.80;99.90;;;;;;4595525;19;20320;-70
2023/09/30 05:22:18;;;;;;;8.10;7.30;;;22.80;99.90;;;;;;4594838;19;20010;-70
2023/09/30 05:23:54;;;;;;;7.97;6.90;;;22.90;99.90;;;;;;4592841;19;20003;-70
2023/09/30 05:25:28;;;;;;;8.02;7.05;;;22.90;99.90;;;;;;4595459;19;20451;-69
2023/09/30 05:27:02;;;;;;;9.75;7.60;;;22.80;99.90;;;;;;4595446;19;20002;-71
2023/09/30 05:28:39;;;;;;;8.20;6.60;;;22.90;99.90;;;;;;4595780;19;20022;-71
2023/09/30 05:30:15;;;;;;;8.25;6.93;;;22.80;99.90;;;;;;4595414;19;20006;-70
2023/09/30 05:31:50;;;;;;;9.20;6.65;;;23.00;99.90;;;;;;4593903;19;20031;-70
2023/09/30 05:33:25;;;;;;;7.90;6.43;;;23.10;99.90;;;;;;4594867;19;20021;-71
2023/09/30 05:35:00;;;;;;;6.53;5.35;;;23.20;99.90;;;;;;4593855;19;20326;-71
2023/09/30 05:36:35;;;;;;;6.63;5.82;;;23.20;99.90;;;;;;4593917;19;20486;-71
2023/09/30 05:38:10;;;;;;;6.28;5.50;;;23.10;99.90;;;;;;4594927;19;20016;-71
2023/09/30 05:39:44;;;;;;;8.27;6.25;;;23.00;99.90;;;;;;4595168;19;20070;-70
2023/09/30 05:41:20;;;;;;;6.65;5.95;;;23.00;99.90;;;;;;4595188;19;20007;-71
2023/09/30 05:42:59;;;;;;;8.07;6.13;;;23.00;99.90;;;;;;4593725;19;20051;-69
2023/09/30 05:44:34;;;;;;;6.60;5.75;;;23.10;99.90;;;;;;4594085;19;20030;-69
2023/09/30 05:46:08;;;;;;;9.50;6.22;;;23.10;99.90;;;;;;4593706;19;20033;-74
2023/09/30 05:47:45;;;;;;;7.32;5.35;;;23.00;99.90;;;;;;4595098;19;20097;-72
2023/09/30 05:49:20;;;;;;;6.45;5.53;;;23.00;99.90;;;;;;4595026;19;20010;-70
2023/09/30 05:50:54;;;;;;;6.45;5.30;;;23.00;99.90;;;;;;4595218;19;20318;-69
2023/09/30 05:52:29;;;;;;;6.85;4.82;;;22.90;99.90;;;;;;4594092;19;20009;-69
2023/09/30 05:54:04;;;;;;;8.43;5.38;;;22.80;99.90;;;;;;4594829;19;20058;-70
2023/09/30 05:55:38;;;;;;;7.03;5.53;;;22.80;99.90;;;;;;4594847;19;20297;-70
2023/09/30 05:57:14;;;;;;;9.02;5.97;;;22.90;99.90;;;;;;4594865;19;20024;-70
2023/09/30 05:58:47;;;;;;;5.50;4.28;;;22.90;99.90;;;;;;4595039;19;20003;-69
2023/09/30 06:00:22;;;;;;;6.32;3.80;;;22.90;99.90;;;;;;4594742;19;20002;-71
2023/09/30 06:01:57;;;;;;;5.38;4.03;;;22.80;99.90;;;;;;4594266;19;20014;-69
2023/09/30 06:03:32;;;;;;;7.53;5.70;;;22.90;99.90;;;;;;4593865;19;20017;-69
2023/09/30 06:05:07;;;;;;;9.15;6.18;;;22.90;99.90;;;;;;4594713;19;20316;-70
2023/09/30 06:06:42;;;;;;;7.18;6.28;;;23.10;99.90;;;;;;4594638;19;20007;-70
2023/09/30 06:08:17;;;;;;;7.15;5.68;;;23.30;99.90;;;;;;4594843;19;20004;-70
2023/09/30 06:09:51;;;;;;;6.80;5.40;;;23.30;99.90;;;;;;4594840;19;20025;-69
2023/09/30 06:11:28;;;;;;;7.50;5.95;;;23.30;99.90;;;;;;4594617;19;20031;-70
2023/09/30 06:13:02;;;;;;;8.32;6.47;;;23.50;99.90;;;;;;4592935;19;20019;-70
2023/09/30 06:14:36;;;;;;;9.15;5.68;;;23.70;99.90;;;;;;4594338;19;20092;-70
2023/09/30 06:16:12;;;;;;;7.30;5.00;;;23.70;99.90;;;;;;4594635;19;20002;-70
2023/09/30 06:17:51;;;;;;;4.50;3.60;;;23.80;99.90;;;;;;4592973;19;19998;-70
2023/09/30 06:19:26;;;;;;;3.80;2.92;;;23.70;99.90;;;;;;4594070;19;20330;-70
2023/09/30 06:21:03;;;;;;;5.20;2.97;;;23.70;99.90;;;;;;4592838;19;20024;-69
2023/09/30 06:22:37;;;;;;;3.25;2.00;;;23.70;99.90;;;;;;4592973;19;20014;-69
2023/09/30 06:24:12;;;;;;;3.13;1.63;;;23.80;99.90;;;;;;4591583;19;20367;-69
2023/09/30 06:25:48;;;;;;;3.67;1.70;;;23.90;99.90;;;;;;4594160;19;20312;-70
2023/09/30 06:27:22;;;;;;;5.35;2.13;;;23.90;99.90;;;;;;4594176;19;20026;-70
2023/09/30 06:28:57;;;;;;;4.10;2.08;;;24.00;99.90;;;;;;4594337;19;19999;-70
2023/09/30 06:30:33;;;;;;;4.30;2.03;;;24.10;99.90;;;;;;4594171;19;20006;-69
2023/09/30 06:32:07;;;;;;;3.92;1.75;;;24.10;99.90;;;;;;4593526;19;20007;-69
2023/09/30 06:33:41;;;;;;;5.97;2.10;;;24.10;99.90;;;;;;4594024;19;20002;-71
2023/09/30 06:35:17;;;;;;;3.33;1.50;;;24.10;99.90;;;;;;4594348;19;20014;-70
2023/09/30 06:36:53;;;;;;;5.28;1.50;;;24.20;99.90;;;;;;4593975;19;20014;-69
2023/09/30 06:38:28;;;;;;;4.13;1.60;;;24.10;99.90;;;;;;4593903;19;20421;-69
2023/09/30 06:40:03;;;;;;;3.47;1.40;;;24.10;99.90;;;;;;4594243;19;20007;-83
2023/09/30 06:41:39;;;;;;;5.75;1.85;;;24.10;99.90;;;;;;4593857;19;20025;-70
2023/09/30 06:43:15;;;;;;;4.85;1.90;;;24.00;99.90;;;;;;4590264;19;20006;-69
2023/09/30 06:44:53;;;;;;;7.70;1.50;;;24.00;99.90;;;;;;4593566;19;20006;-69
2023/09/30 06:46:28;;;;;;;4.38;1.70;;;24.00;99.90;;;;;;4592707;19;19999;-69
2023/09/30 06:48:03;;;;;;;2.88;1.40;;;24.00;99.90;;;;;;4593380;19;20029;-69
2023/09/30 06:49:38;;;;;;;3.28;1.58;;;23.90;99.90;;;;;;4593808;19;20433;-69
2023/09/30 06:51:15;;;;;;;3.22;1.50;;;23.80;99.90;;;;;;4593691;19;19998;-69
2023/09/30 06:52:50;;;;;;;2.70;1.25;;;23.70;99.90;;;;;;4591515;19;20312;-72
2023/09/30 06:54:25;;;;;;;3.15;1.30;;;23.80;99.90;;;;;;4593339;19;20007;-70
2023/09/30 06:56:00;;;;;;;3.22;1.63;;;23.70;99.90;;;;;;4593543;19;20002;-72
2023/09/30 06:57:37;;;;;;;5.57;1.63;;;23.70;99.90;;;;;;4593573;19;20010;-70
2023/09/30 06:59:13;;;;;;;6.75;1.75;;;23.60;99.90;;;;;;4592480;19;20066;-69
2023/09/30 07:00:46;;;;;;;3.15;1.38;;;23.60;99.90;;;;;;4593112;19;20054;-69
2023/09/30 07:02:20;;;;;;;3.58;1.30;;;23.50;99.90;;;;;;4593072;19;20006;-68
2023/09/30 07:03:55;;;;;;;3.38;1.50;;;23.50;99.90;;;;;;4592953;19;20009;-70
2023/09/30 07:05:30;;;;;;;5.28;1.60;;;23.50;99.90;;;;;;4593629;19;20334;-69
2023/09/30 07:07:04;;;;;;;5.55;1.92;;;23.40;99.90;;;;;;4593328;19;20006;-69
2023/09/30 07:08:39;;;;;;;4.18;1.95;;;23.40;99.90;;;;;;4593640;19;20288;-70
2023/09/30 07:10:14;;;;;;;4.35;1.88;;;23.30;99.90;;;;;;4593288;19;20002;-70
2023/09/30 07:11:49;;;;;;;3.97;1.88;;;23.30;99.90;;;;;;4591716;19;20005;-70
2023/09/30 07:13:24;;;;;;;8.43;2.88;;;23.50;99.90;;;;;;4592964;19;20029;-73
2023/09/30 07:14:59;;;;;;;4.10;1.70;;;23.50;99.90;;;;;;4593459;19;20421;-69
2023/09/30 07:16:32;;;;;;;5.68;2.08;;;23.50;99.90;;;;;;4593165;19;20019;-69
2023/09/30 07:18:08;;;;;;;4.78;1.63;;;23.50;99.90;;;;;;4593132;19;19998;-69
2023/09/30 07:19:42;;;;;;;6.78;1.70;;;23.60;99.90;;;;;;4591733;19;19998;-68
2023/09/30 07:21:17;;;;;;;3.53;1.58;;;23.60;99.90;;;;;;4592657;19;20077;-70
2023/09/30 07:22:53;;;;;;;3.67;1.90;;;23.50;99.90;;;;;;4591911;19;20510;-69
2023/09/30 07:24:26;;;;;;;4.75;1.83;;;23.30;99.90;;;;;;4592992;19;20003;-77
2023/09/30 07:26:01;;;;;;;8.88;1.90;;;23.30;99.90;;;;;;4592872;19;19998;-71
2023/09/30 07:27:36;;;;;;;4.20;1.60;;;23.30;99.90;;;;;;4593218;19;20189;-70
2023/09/30 07:29:10;;;;;;;4.78;1.90;;;23.20;99.90;;;;;;4593159;19;20443;-70
2023/09/30 07:30:45;;;;;;;5.03;1.70;;;23.20;99.90;;;;;;4592924;19;20430;-69
2023/09/30 07:32:23;;;;;;;5.20;2.03;;;23.30;99.90;;;;;;4592386;19;20086;-70
2023/09/30 07:33:57;;;;;;;5.30;2.30;;;23.30;99.90;;;;;;4591439;19;20015;-69
2023/09/30 07:35:31;;;;;;;7.60;1.85;;;23.30;99.90;;;;;;4592371;19;20002;-70
2023/09/30 07:37:08;;;;;;;7.20;1.90;;;23.30;99.90;;;;;;4592867;19;20006;-70
2023/09/30 07:38:42;;;;;;;7.03;2.30;;;23.50;99.90;;;;;;4592662;19;20315;-70
2023/09/30 07:40:16;;;;;;;3.78;1.58;;;23.50;99.90;;;;;;4593067;19;20002;-70
2023/09/30 07:41:51;;;;;;;3.88;1.80;;;23.50;99.90;;;;;;4592534;19;20015;-70
2023/09/30 07:43:30;;;;;;;3.70;1.45;;;23.30;99.90;;;;;;4592242;19;20449;-70
2023/09/30 07:45:05;;;;;;;5.03;2.17;;;23.30;99.90;;;;;;4592677;19;20029;-70
2023/09/30 07:46:40;;;;;;;4.20;1.90;;;23.20;99.90;;;;;;4592676;19;20013;-70
2023/09/30 07:48:14;;;;;;;5.28;2.15;;;23.10;99.90;;;;;;4592598;19;20018;-70
2023/09/30 07:49:50;;;;;;;6.60;2.25;;;23.20;99.90;;;;;;4592548;19;20036;-71
2023/09/30 07:51:25;;;;;;;4.20;2.20;;;23.10;99.90;;;;;;4592854;19;20461;-70
2023/09/30 07:53:00;;;;;;;5.03;2.00;;;23.00;99.90;;;;;;4591462;19;20009;-70
2023/09/30 07:54:35;;;;;;;5.20;2.00;;;23.00;99.90;;;;;;4592122;19;19998;-70
2023/09/30 07:56:10;;;;;;;4.45;2.17;;;23.00;99.90;;;;;;4592753;19;20011;-70
2023/09/30 07:57:46;;;;;;;5.70;2.55;;;23.00;99.90;;;;;;4592400;19;20031;-69
2023/09/30 07:59:20;;;;;;;3.85;2.10;;;22.90;99.90;;;;;;4592401;19;20003;-69
2023/09/30 08:00:57;;;;;;;4.18;1.90;;;22.90;99.90;;;;;;4592436;19;20003;-69
2023/09/30 08:02:33;;;;;;;7.65;2.00;;;23.00;99.90;;;;;;4591876;19;20013;-69
2023/09/30 08:04:07;;;;;;;5.53;2.20;;;23.00;99.90;;;;;;4590085;19;20002;-70
2023/09/30 08:05:43;;;;;;;5.80;2.30;;;22.90;99.90;;;;;;4591990;19;20441;-69
2023/09/30 08:07:19;;;;;;;5.70;2.53;;;22.80;99.90;;;;;;4592154;19;20003;-69
2023/09/30 08:08:53;;;;;;;5.93;2.38;;;22.80;99.90;;;;;;4592210;19;19998;-69
2023/09/30 08:10:29;;;;;;;5.18;2.15;;;22.90;99.90;;;;;;4591106;19;20033;-69
2023/09/30 08:12:06;;;;;;;6.88;2.58;;;22.80;99.90;;;;;;4591120;19;20015;-70
2023/09/30 08:13:41;;;;;;;7.65;2.80;;;22.70;99.90;;;;;;4592410;19;20022;-69
2023/09/30 08:15:16;;;;;;;6.72;2.50;;;22.50;99.90;;;;;;4592159;19;20218;-69
2023/09/30 08:16:50;;;;;;;7.68;2.90;;;22.40;99.90;;;;;;4592243;19;20091;-69
2023/09/30 08:18:24;;;;;;;6.22;2.85;;;22.30;99.90;;;;;;4591989;19;20009;-69
2023/09/30 08:20:00;;;;;;;4.80;2.50;;;22.20;99.90;;;;;;4592250;19;20070;-69
2023/09/30 08:21:34;;;;;;;8.65;2.60;;;22.20;99.90;;;;;;4590894;19;20002;-69